Home   Weather   USA   Bristol   Past weeks
Flag for USA

Past Weather in Bristol, Tennessee, USA — Yesterday and Last 2 Weeks

Currently: 78 °F. Passing clouds. (Weather station: Abingdon-Southwest Abingdon, USA). See more current weather

Past Weather in Bristol — Graph

°F

Bristol Temperature Yesterday

Maximum temperature yesterday: 83 °F (at 2:35 pm)
Minimum temperature yesterday: 64 °F (at 5:55 am)
Average temperature yesterday: 74 °F

High & Low Weather Summary for the Past Weeks

 TemperatureHumidityPressure
High86 °F (Jun 16, 3:15 pm)100% (Jun 5, 10:15 pm)30.42 "Hg (Jun 5, 10:15 pm)
Low51 °F (Jun 8, 5:55 am)31% (Jun 7, 3:35 pm)29.77 "Hg (Jun 6, 6:15 pm)
Average70 °F71%30.07 "Hg
* Reported Jun 5 8:15 pm — Jun 20 8:35 pm, Bristol. Weather by CustomWeather, © 2024

Note: Actual official high and low records may vary slightly from our data, if they occured in-between our weather recording intervals... More about our weather records

Bristol Weather History for the Previous 24 Hours

Scroll right to see more
 ConditionsComfort  
Time TempWeatherWind HumidityBarometerVisibility
8:35 pm
Thu, Jun 20
80 °FPartly sunny.No wind56%30.32 "Hg10 mi
8:15 pm82 °FBroken clouds.No wind50%30.32 "Hg10 mi
7:55 pm83 °FScattered clouds.No wind47%30.32 "Hg10 mi
7:15 pm84 °FScattered clouds.No wind43%30.31 "Hg10 mi
6:55 pm84 °FScattered clouds.No wind40%30.31 "Hg10 mi
6:35 pm85 °FPartly sunny.No wind38%30.31 "Hg10 mi
6:15 pm85 °FSunny.3 mph37%30.32 "Hg10 mi
5:55 pm85 °FSunny.3 mph37%30.32 "Hg10 mi
5:15 pm85 °FScattered clouds.No wind39%30.33 "Hg10 mi
4:35 pm85 °FSunny.3 mph39%30.34 "Hg10 mi
4:15 pm84 °FScattered clouds.3 mph39%30.35 "Hg10 mi
3:55 pm84 °FPartly sunny.No wind40%30.35 "Hg10 mi
3:35 pm84 °FSunny.5 mph41%30.36 "Hg10 mi
3:15 pm83 °FSunny.No wind41%30.36 "Hg10 mi
2:55 pm82 °FScattered clouds.6 mph46%30.37 "Hg10 mi
2:35 pm82 °FOvercast.3 mph47%30.38 "Hg10 mi
2:15 pm82 °FPartly sunny.No wind45%30.39 "Hg7 mi
1:55 pm82 °FScattered clouds.7 mph45%30.39 "Hg4 mi
1:35 pm81 °FSunny.6 mph45%30.39 "Hg10 mi
1:15 pm82 °FSunny.No wind44%30.40 "Hg10 mi
12:35 pm80 °FScattered clouds.3 mph47%30.41 "Hg10 mi
12:15 pm80 °FScattered clouds.5 mph49%30.42 "Hg10 mi
11:35 am77 °FSunny.No wind54%30.42 "Hg10 mi
10:55 am76 °FSunny.6 mph59%30.42 "Hg10 mi
10:35 am75 °FSunny.No wind61%30.42 "Hg10 mi
9:35 am71 °FSunny.3 mph73%30.42 "Hg10 mi
9:15 am70 °FSunny.3 mph76%30.42 "Hg10 mi
8:35 am67 °FSunny.3 mph79%30.41 "Hg10 mi
8:15 am66 °FScattered clouds.No wind80%30.41 "Hg10 mi
7:55 am66 °FSunny.6 mph81%30.40 "Hg10 mi
7:15 am65 °FSunny.6 mph83%30.40 "Hg10 mi
6:55 am64 °FSunny.5 mph84%30.40 "Hg10 mi
6:35 am63 °FSunny.5 mph86%30.40 "Hg10 mi
6:15 am65 °FSunny.5 mph81%30.39 "Hg10 mi
5:55 am64 °FClear.3 mph83%30.39 "Hg10 mi
5:35 am64 °FClear.3 mph83%30.38 "Hg10 mi
5:15 am63 °FClear.3 mph87%30.38 "Hg10 mi
4:35 am64 °FClear.No wind84%30.38 "Hg10 mi
4:15 am65 °FClear.No wind83%30.37 "Hg10 mi
3:35 am66 °FClear.No wind79%30.37 "Hg10 mi
3:15 am65 °FClear.No wind81%30.37 "Hg10 mi
2:55 am65 °FClear.No wind83%30.37 "Hg10 mi
2:35 am67 °FClear.No wind76%30.36 "Hg10 mi
2:15 am67 °FClear.No wind77%30.37 "Hg10 mi
1:55 am68 °FClear.No wind73%30.36 "Hg10 mi
1:35 am69 °FClear.No wind72%30.37 "Hg10 mi
1:15 am69 °FClear.5 mph72%30.37 "Hg10 mi
12:55 am69 °FClear.5 mph72%30.37 "Hg10 mi
12:35 am70 °FClear.6 mph69%30.37 "Hg10 mi
12:15 am70 °FClear.7 mph69%30.37 "Hg10 mi
11:55 pm
Wed, Jun 19
71 °FClear.6 mph67%30.37 "Hg10 mi
11:35 pm71 °FClear.5 mph66%30.38 "Hg10 mi
10:55 pm71 °FClear.3 mph69%30.37 "Hg10 mi
10:35 pm72 °FClear.6 mph65%30.37 "Hg10 mi
9:55 pm73 °FClear.5 mph63%30.36 "Hg10 mi
9:35 pm73 °FClear.3 mph65%30.35 "Hg10 mi
9:15 pm74 °FClear.3 mph62%30.35 "Hg10 mi
Weather by CustomWeather, © 2024

See weather overview